Time;durP1;ratioP1;P1;durP2;ratioP2;P2;SDS_P1;SDS_P2;PMS_P1;PMS_P2;Temp;Humidity;BMP_temperature;BMP_pressure;BME280_temperature;BME280_humidity;BME280_pressure;Samples;Min_cycle;Max_cycle;Signal;HPM_P1;HPM_P2
2022/08/14 00:01:26;;;;;;;4.40;3.53;;;24.90;37.40;;;;;;4998843;28;20057;-46
2022/08/14 00:03:53;;;;;;;3.78;3.00;;;24.80;37.60;;;;;;5004999;28;20058;-45
2022/08/14 00:06:21;;;;;;;4.35;3.70;;;24.80;37.70;;;;;;5004078;28;20061;-43
2022/08/14 00:08:49;;;;;;;4.93;3.90;;;24.80;38.00;;;;;;5005326;28;20057;-46
2022/08/14 00:11:16;;;;;;;4.55;3.50;;;24.80;37.90;;;;;;5001840;28;20054;-47
2022/08/14 00:13:43;;;;;;;5.72;3.70;;;24.70;38.10;;;;;;5002821;28;20416;-45
2022/08/14 00:16:13;;;;;;;4.38;3.58;;;24.70;38.10;;;;;;5004807;28;20425;-46
2022/08/14 00:18:41;;;;;;;5.82;3.67;;;24.70;38.30;;;;;;5004785;28;20065;-47
2022/08/14 00:21:08;;;;;;;4.70;3.80;;;24.70;38.60;;;;;;5002356;28;20064;-46
2022/08/14 00:23:37;;;;;;;10.02;3.88;;;24.70;38.70;;;;;;5004212;28;20053;-48
2022/08/14 00:26:04;;;;;;;4.95;3.85;;;24.70;39.00;;;;;;5004410;28;20401;-47
2022/08/14 00:28:32;;;;;;;6.30;3.95;;;24.60;38.90;;;;;;5004704;28;20065;-44
2022/08/14 00:30:59;;;;;;;5.32;4.20;;;24.60;38.90;;;;;;5000918;28;20520;-45
2022/08/14 00:33:28;;;;;;;5.97;3.97;;;24.60;38.90;;;;;;5004096;28;20050;-45
2022/08/14 00:35:55;;;;;;;5.38;4.10;;;24.60;39.00;;;;;;5005553;28;20069;-47
2022/08/14 00:38:23;;;;;;;6.97;3.92;;;24.50;39.00;;;;;;5004679;28;20505;-46
2022/08/14 00:40:51;;;;;;;4.82;4.20;;;24.50;39.20;;;;;;5002275;28;20049;-48
2022/08/14 00:43:19;;;;;;;5.65;4.65;;;24.50;39.40;;;;;;5004199;28;20049;-46
2022/08/14 00:45:46;;;;;;;5.05;4.18;;;24.50;39.60;;;;;;5003021;28;20062;-43
2022/08/14 00:48:17;;;;;;;6.00;3.90;;;24.50;39.70;;;;;;5004844;28;20057;-49
2022/08/14 00:50:45;;;;;;;5.60;4.22;;;24.50;39.90;;;;;;5002109;28;20045;-45
2022/08/14 00:53:12;;;;;;;5.47;4.28;;;24.40;40.00;;;;;;5002621;28;20066;-47
2022/08/14 00:55:40;;;;;;;5.38;4.80;;;24.40;40.20;;;;;;5004160;28;20061;-44
2022/08/14 01:00:53;;;;;;;8.27;5.20;;;24.40;40.50;;;;;;5008161;28;20056;-45
2022/08/14 01:03:21;;;;;;;6.20;4.93;;;24.40;40.70;;;;;;5004764;28;20061;-48
2022/08/14 01:05:51;;;;;;;7.32;5.13;;;24.40;40.80;;;;;;5005133;28;20061;-44
2022/08/14 01:08:20;;;;;;;5.43;4.82;;;24.40;40.80;;;;;;5004758;28;20054;-47
2022/08/14 01:10:51;;;;;;;7.97;5.38;;;24.40;41.00;;;;;;5002282;28;20045;-45
2022/08/14 01:13:23;;;;;;;6.93;5.30;;;24.30;41.20;;;;;;5002001;28;20485;-44
2022/08/14 01:15:53;;;;;;;6.13;5.07;;;24.30;41.50;;;;;;5003981;28;20482;-46
2022/08/14 01:21:07;;;;;;;6.45;5.28;;;24.30;41.60;;;;;;5008628;28;20516;-45
2022/08/14 01:23:41;;;;;;;6.50;5.28;;;24.30;41.50;;;;;;5003315;28;20049;-48
2022/08/14 01:26:10;;;;;;;5.70;4.80;;;24.30;41.90;;;;;;5004915;28;20053;-47
2022/08/14 01:28:38;;;;;;;6.38;4.68;;;24.30;41.80;;;;;;5000916;28;20494;-49
2022/08/14 01:31:11;;;;;;;5.45;4.75;;;24.20;41.80;;;;;;5000803;28;20050;-45
2022/08/14 01:33:43;;;;;;;6.15;5.30;;;24.20;42.00;;;;;;5002163;28;20133;-45
2022/08/14 01:36:12;;;;;;;7.25;5.32;;;24.30;42.10;;;;;;5004541;28;20050;-49
2022/08/14 01:38:42;;;;;;;7.10;5.60;;;24.20;42.20;;;;;;5001827;28;20066;-44
2022/08/14 01:41:14;;;;;;;6.75;5.75;;;24.20;42.30;;;;;;4998069;28;20501;-46
2022/08/14 01:43:48;;;;;;;5.93;5.32;;;24.20;42.30;;;;;;5002634;28;20068;-46
2022/08/14 01:46:15;;;;;;;;;;;24.20;42.50;;;;;;5001363;28;20046;-44
2022/08/14 01:48:44;;;;;;;5.38;4.82;;;24.20;41.70;;;;;;5004463;28;19925;-43
2022/08/14 01:51:12;;;;;;;6.32;5.20;;;24.20;42.10;;;;;;5000303;28;20065;-43
2022/08/14 01:53:43;;;;;;;5.13;4.63;;;24.10;42.30;;;;;;5002521;28;20509;-45
2022/08/14 01:56:12;;;;;;;8.02;5.32;;;24.10;42.50;;;;;;5001957;28;20079;-43
2022/08/14 01:58:41;;;;;;;5.90;5.28;;;24.10;42.50;;;;;;4997934;28;20069;-43
2022/08/14 02:01:08;;;;;;;8.10;5.63;;;24.10;42.60;;;;;;5000838;28;20061;-45
2022/08/14 02:03:40;;;;;;;6.57;5.32;;;24.10;42.60;;;;;;5002922;28;20061;-47
2022/08/14 02:06:08;;;;;;;6.22;5.32;;;24.00;42.80;;;;;;5001758;28;20057;-44
2022/08/14 02:08:36;;;;;;;5.78;5.18;;;24.00;42.70;;;;;;5000374;28;20410;-45
2022/08/14 02:11:17;;;;;;;7.53;5.35;;;24.00;42.80;;;;;;4997890;28;20045;-45
2022/08/14 02:13:46;;;;;;;5.70;5.10;;;24.00;43.00;;;;;;5001557;28;20069;-45
2022/08/14 02:16:15;;;;;;;7.05;5.97;;;24.00;43.00;;;;;;5002011;28;20057;-44
2022/08/14 02:18:45;;;;;;;8.98;5.63;;;23.90;43.00;;;;;;5001390;28;20053;-44
2022/08/14 02:21:17;;;;;;;6.15;5.45;;;23.90;43.00;;;;;;5001594;28;20065;-43
2022/08/14 02:23:46;;;;;;;6.53;5.35;;;23.90;43.60;;;;;;5004231;28;20061;-44
2022/08/14 02:26:22;;;;;;;8.60;5.15;;;23.90;43.20;;;;;;5002961;28;20061;-43
2022/08/14 02:28:52;;;;;;;6.65;5.75;;;23.80;43.40;;;;;;5000193;28;20050;-44
2022/08/14 02:31:19;;;;;;;8.40;5.82;;;23.90;43.50;;;;;;5000546;28;20057;-47
2022/08/14 02:33:48;;;;;;;6.57;5.72;;;23.80;43.50;;;;;;5003772;28;20060;-47
2022/08/14 02:36:15;;;;;;;5.57;5.00;;;23.80;43.60;;;;;;5002446;28;20065;-48
2022/08/14 02:38:43;;;;;;;10.18;6.53;;;23.80;43.70;;;;;;5000645;28;20413;-43
2022/08/14 02:41:12;;;;;;;8.43;5.00;;;23.80;43.90;;;;;;5002210;28;20053;-46
2022/08/14 02:43:42;;;;;;;6.88;5.55;;;23.70;43.90;;;;;;5001458;28;20057;-49
2022/08/14 02:46:11;;;;;;;6.57;5.85;;;23.70;44.10;;;;;;5002647;28;20497;-45
2022/08/14 02:48:40;;;;;;;6.70;5.60;;;23.70;44.10;;;;;;4994653;28;20053;-47
2022/08/14 02:51:10;;;;;;;8.57;5.82;;;23.70;44.20;;;;;;4994377;28;20053;-47
2022/08/14 02:53:43;;;;;;;8.93;5.70;;;23.70;44.20;;;;;;5018423;28;20049;-43
2022/08/14 02:56:14;;;;;;;7.13;5.50;;;23.70;44.30;;;;;;5020769;28;20061;-43
2022/08/14 02:58:46;;;;;;;7.38;5.78;;;23.70;44.20;;;;;;5019878;28;20412;-45
2022/08/14 03:01:14;;;;;;;6.32;5.60;;;23.70;44.40;;;;;;5017402;28;20053;-45
2022/08/14 03:03:42;;;;;;;8.32;6.55;;;23.70;44.30;;;;;;5019426;28;20057;-46
2022/08/14 03:06:11;;;;;;;7.05;5.43;;;23.60;44.40;;;;;;5017851;28;20049;-46
2022/08/14 03:08:40;;;;;;;6.88;5.85;;;23.60;44.40;;;;;;5020557;28;20045;-44
2022/08/14 03:11:09;;;;;;;6.35;5.55;;;23.60;44.40;;;;;;5018903;28;20061;-45
2022/08/14 03:13:38;;;;;;;5.88;5.25;;;23.60;44.50;;;;;;5021660;28;20057;-44
2022/08/14 03:16:09;;;;;;;5.97;5.38;;;23.50;44.60;;;;;;5021006;28;20049;-44
2022/08/14 03:18:41;;;;;;;5.97;5.38;;;23.60;44.60;;;;;;5017968;28;20045;-45
2022/08/14 03:21:12;;;;;;;6.78;5.60;;;23.50;44.70;;;;;;5019056;28;20053;-49
2022/08/14 03:23:40;;;;;;;8.07;5.57;;;23.50;44.70;;;;;;5021613;28;20053;-47
2022/08/14 03:26:09;;;;;;;7.03;5.55;;;23.50;44.80;;;;;;5022391;28;20059;-46
2022/08/14 03:28:40;;;;;;;6.32;5.53;;;23.50;44.90;;;;;;5020982;28;20056;-47
2022/08/14 03:31:09;;;;;;;6.28;5.47;;;23.50;45.00;;;;;;5019097;28;20060;-44
2022/08/14 03:33:39;;;;;;;6.32;5.68;;;23.50;45.00;;;;;;5020842;28;20049;-45
2022/08/14 03:36:11;;;;;;;6.88;5.75;;;23.40;44.80;;;;;;5021179;28;20056;-43
2022/08/14 03:38:41;;;;;;;9.38;5.70;;;23.40;44.90;;;;;;5022495;28;20050;-43
2022/08/14 03:41:13;;;;;;;6.95;5.70;;;23.40;44.80;;;;;;5021071;28;20049;-43
2022/08/14 03:43:40;;;;;;;7.55;6.18;;;23.40;44.90;;;;;;5023022;28;20069;-45
2022/08/14 03:46:10;;;;;;;7.88;5.22;;;23.40;44.90;;;;;;5026449;28;20053;-44
2022/08/14 03:48:38;;;;;;;8.05;5.70;;;23.30;44.90;;;;;;5022951;28;20512;-47
2022/08/14 03:51:07;;;;;;;11.10;9.20;;;23.30;44.90;;;;;;5022212;28;20053;-47
2022/08/14 03:53:36;;;;;;;12.75;9.52;;;23.30;45.00;;;;;;5023943;28;20057;-47
2022/08/14 03:56:04;;;;;;;14.57;9.23;;;23.30;45.00;;;;;;5024504;28;20057;-46
2022/08/14 03:58:32;;;;;;;9.15;7.72;;;23.20;45.00;;;;;;5024447;28;20050;-45
2022/08/14 04:01:01;;;;;;;7.47;6.63;;;23.20;45.10;;;;;;5021686;28;20049;-45
2022/08/14 04:03:30;;;;;;;7.15;6.32;;;23.20;45.10;;;;;;5024087;28;20080;-44
2022/08/14 04:05:57;;;;;;;7.38;6.50;;;23.10;45.20;;;;;;5025803;28;20057;-46
2022/08/14 04:08:24;;;;;;;7.72;6.05;;;23.10;45.30;;;;;;5024161;28;20053;-45
2022/08/14 04:10:51;;;;;;;7.45;6.50;;;23.00;45.30;;;;;;5024331;28;20526;-44
2022/08/14 04:13:19;;;;;;;6.60;5.72;;;23.00;45.50;;;;;;5024223;28;20600;-45
2022/08/14 04:15:47;;;;;;;12.15;6.57;;;23.00;45.50;;;;;;5025340;28;20065;-45
2022/08/14 04:18:14;;;;;;;7.22;6.07;;;22.90;45.80;;;;;;5021210;28;20045;-43
2022/08/14 04:20:43;;;;;;;8.88;6.05;;;22.90;45.80;;;;;;5023267;28;20061;-46
2022/08/14 04:23:10;;;;;;;6.80;6.05;;;22.80;45.80;;;;;;5025478;28;20057;-45
2022/08/14 04:25:39;;;;;;;7.05;6.00;;;22.80;45.90;;;;;;5025354;28;20064;-44
2022/08/14 04:28:08;;;;;;;6.90;6.20;;;22.80;46.10;;;;;;5022888;28;20045;-45
2022/08/14 04:30:38;;;;;;;6.80;5.72;;;22.80;46.30;;;;;;5005360;28;20425;-44
2022/08/14 04:33:07;;;;;;;9.60;6.40;;;22.80;46.50;;;;;;5025461;28;20069;-46
2022/08/14 04:35:35;;;;;;;7.03;6.32;;;22.80;46.80;;;;;;5025539;28;20053;-43
2022/08/14 04:43:38;;;;;;;8.18;6.22;;;23.00;46.90;;;;;;5029437;28;20061;-49
2022/08/14 04:46:08;;;;;;;7.18;6.20;;;23.00;46.70;;;;;;5025616;28;20997;-46
2022/08/14 04:48:34;;;;;;;7.53;6.38;;;23.00;46.50;;;;;;5022707;28;20053;-46
2022/08/14 04:51:03;;;;;;;9.40;6.88;;;23.10;46.40;;;;;;5023435;28;20049;-45
2022/08/14 04:53:33;;;;;;;7.38;6.63;;;23.10;46.30;;;;;;5024961;28;20420;-47
2022/08/14 04:56:00;;;;;;;7.55;6.60;;;23.20;46.40;;;;;;5025102;28;20057;-44
2022/08/14 04:58:29;;;;;;;7.95;6.25;;;23.20;46.30;;;;;;5023849;28;20050;-44
2022/08/14 05:00:58;;;;;;;11.20;6.38;;;23.20;46.30;;;;;;5023353;28;20056;-46
2022/08/14 05:03:28;;;;;;;7.55;6.40;;;23.30;46.40;;;;;;5025215;28;20064;-45
2022/08/14 05:05:58;;;;;;;7.43;6.05;;;23.30;46.50;;;;;;5023919;28;20084;-43
2022/08/14 05:08:26;;;;;;;7.35;6.20;;;23.30;46.60;;;;;;5023250;28;20084;-42
2022/08/14 05:10:56;;;;;;;7.75;6.20;;;23.30;46.60;;;;;;5022097;28;20053;-44
2022/08/14 05:13:25;;;;;;;11.32;7.68;;;23.30;46.80;;;;;;5021698;28;20057;-46
2022/08/14 05:15:54;;;;;;;10.10;8.07;;;23.30;47.00;;;;;;5024379;28;20061;-43
2022/08/14 05:18:23;;;;;;;13.50;7.18;;;23.30;47.10;;;;;;5023131;28;20057;-51
2022/08/14 05:20:53;;;;;;;7.97;6.85;;;23.30;47.20;;;;;;5022113;28;20946;-44
2022/08/14 05:23:33;;;;;;;7.18;6.47;;;23.30;47.20;;;;;;5015993;28;20405;-44
2022/08/14 05:26:11;;;;;;;7.07;5.68;;;23.30;47.40;;;;;;5025246;28;20061;-49
2022/08/14 05:28:42;;;;;;;10.80;6.30;;;23.30;47.50;;;;;;5020201;28;20060;-46
2022/08/14 05:31:11;;;;;;;7.03;6.32;;;23.30;47.50;;;;;;5019896;28;20053;-47
2022/08/14 05:33:39;;;;;;;7.15;6.40;;;23.30;47.60;;;;;;5023609;28;20531;-48
2022/08/14 05:36:10;;;;;;;8.63;6.88;;;23.30;47.70;;;;;;5022839;28;20068;-42
2022/08/14 05:38:39;;;;;;;8.60;6.30;;;23.30;47.80;;;;;;5023663;28;20053;-44
2022/08/14 05:41:11;;;;;;;10.25;6.15;;;23.30;47.80;;;;;;5022390;28;20066;-45
2022/08/14 05:43:39;;;;;;;7.72;6.43;;;23.30;48.00;;;;;;5021103;28;20049;-45
2022/08/14 05:46:06;;;;;;;10.48;7.00;;;23.40;48.00;;;;;;5022982;28;20057;-44
2022/08/14 05:48:34;;;;;;;8.00;6.57;;;23.30;48.10;;;;;;5023451;28;20049;-44
2022/08/14 05:51:01;;;;;;;7.38;6.40;;;23.40;48.30;;;;;;5022335;28;20057;-48
2022/08/14 05:53:28;;;;;;;7.15;6.45;;;23.40;48.40;;;;;;5021930;28;20053;-44
2022/08/14 05:55:57;;;;;;;7.63;6.38;;;23.40;48.50;;;;;;5022035;28;20064;-46
2022/08/14 05:58:26;;;;;;;7.07;6.38;;;23.40;48.40;;;;;;5023291;28;20057;-45
2022/08/14 06:00:54;;;;;;;7.75;6.72;;;23.50;48.40;;;;;;5016800;28;20056;-46
2022/08/14 06:03:22;;;;;;;8.68;6.95;;;23.50;48.30;;;;;;5023318;28;20061;-45
2022/08/14 06:05:51;;;;;;;6.60;5.78;;;23.50;48.30;;;;;;5024694;28;20070;-45
2022/08/14 06:08:21;;;;;;;7.07;6.07;;;23.50;48.30;;;;;;5024083;28;20050;-45
2022/08/14 06:10:49;;;;;;;7.00;6.30;;;23.60;48.40;;;;;;5024226;28;20046;-47
2022/08/14 06:13:17;;;;;;;9.27;6.88;;;23.60;48.50;;;;;;5022996;28;20065;-46
2022/08/14 06:15:46;;;;;;;7.85;6.30;;;23.70;48.40;;;;;;5023600;28;20056;-48
2022/08/14 06:18:16;;;;;;;7.20;6.50;;;23.70;48.40;;;;;;5023642;28;20049;-47
2022/08/14 06:20:43;;;;;;;9.50;6.70;;;23.80;48.40;;;;;;5024033;28;20493;-45
2022/08/14 06:23:11;;;;;;;8.23;6.50;;;23.80;48.40;;;;;;5022664;28;20361;-47
2022/08/14 06:25:38;;;;;;;9.05;7.53;;;23.80;48.30;;;;;;5023465;28;20060;-44
2022/08/14 06:28:06;;;;;;;9.32;6.57;;;23.90;48.50;;;;;;5021826;28;20061;-47
2022/08/14 06:30:34;;;;;;;8.02;6.68;;;24.00;48.70;;;;;;5020080;28;20061;-46
2022/08/14 06:33:02;;;;;;;9.90;6.28;;;24.00;48.60;;;;;;5022232;28;20516;-49
2022/08/14 06:35:30;;;;;;;11.05;6.45;;;24.10;48.60;;;;;;5022994;28;20050;-45
2022/08/14 06:37:58;;;;;;;8.93;6.25;;;24.10;48.30;;;;;;5019691;28;20057;-45
2022/08/14 06:40:29;;;;;;;9.25;6.60;;;24.20;48.10;;;;;;5021929;28;20492;-47
2022/08/14 06:42:57;;;;;;;7.30;6.45;;;24.20;48.60;;;;;;5022459;28;20057;-43
2022/08/14 06:45:24;;;;;;;9.45;6.75;;;24.30;48.00;;;;;;5021439;28;20687;-46
2022/08/14 06:47:52;;;;;;;8.07;6.78;;;24.30;47.80;;;;;;5019941;28;20064;-46
2022/08/14 06:50:22;;;;;;;7.85;6.93;;;24.40;47.70;;;;;;5020011;28;20519;-45
2022/08/14 06:52:50;;;;;;;9.07;6.93;;;24.40;47.70;;;;;;5023134;28;20497;-43
2022/08/14 06:55:18;;;;;;;7.53;6.75;;;24.40;47.70;;;;;;5022190;28;20061;-50
2022/08/14 06:57:47;;;;;;;8.70;7.10;;;24.50;47.70;;;;;;5021657;28;20054;-45
2022/08/14 07:00:18;;;;;;;10.65;7.25;;;24.60;47.60;;;;;;5019138;28;20409;-44
2022/08/14 07:05:45;;;;;;;7.95;7.00;;;24.70;47.90;;;;;;5028346;28;20060;-46
2022/08/14 07:08:14;;;;;;;8.73;6.95;;;24.80;47.80;;;;;;5020817;28;20045;-45
2022/08/14 07:10:43;;;;;;;8.18;7.18;;;24.80;47.70;;;;;;5020952;28;20175;-44
2022/08/14 07:13:10;;;;;;;8.88;6.63;;;24.90;47.40;;;;;;5021986;28;20057;-45
2022/08/14 07:15:38;;;;;;;7.30;6.53;;;24.90;47.20;;;;;;5018308;28;20060;-44
2022/08/14 07:18:06;;;;;;;8.30;7.22;;;25.00;47.00;;;;;;5022144;28;20072;-43
2022/08/14 07:20:35;;;;;;;8.50;6.97;;;25.00;47.30;;;;;;5021981;28;20060;-45
2022/08/14 07:23:04;;;;;;;7.18;6.45;;;25.10;47.30;;;;;;5020652;28;20064;-46
2022/08/14 07:25:31;;;;;;;8.18;6.78;;;25.20;47.00;;;;;;5022382;28;20068;-45
2022/08/14 07:27:58;;;;;;;7.03;6.22;;;25.20;46.80;;;;;;5020201;28;20054;-43
2022/08/14 07:30:25;;;;;;;8.82;6.72;;;25.30;46.90;;;;;;5018747;28;20050;-50
2022/08/14 07:32:52;;;;;;;7.25;6.50;;;25.30;47.00;;;;;;5021803;28;20057;-47
2022/08/14 07:35:20;;;;;;;7.60;6.28;;;25.40;46.90;;;;;;5022205;28;20065;-47
2022/08/14 07:37:49;;;;;;;7.13;6.28;;;25.50;46.70;;;;;;5021978;28;20057;-45
2022/08/14 07:40:16;;;;;;;7.68;6.28;;;25.50;46.80;;;;;;5019437;28;20049;-45
2022/08/14 07:42:44;;;;;;;7.35;6.65;;;25.60;46.90;;;;;;5019681;28;20053;-43
2022/08/14 07:45:12;;;;;;;7.22;6.53;;;25.60;46.90;;;;;;5021645;28;20058;-44
2022/08/14 07:47:41;;;;;;;7.68;6.78;;;25.70;46.80;;;;;;5020093;28;20056;-44
2022/08/14 07:50:15;;;;;;;8.30;6.45;;;25.80;46.70;;;;;;5018587;28;20042;-44
2022/08/14 07:52:43;;;;;;;7.28;6.57;;;25.80;46.60;;;;;;5021759;28;20533;-47
2022/08/14 07:55:13;;;;;;;7.57;6.78;;;25.90;46.30;;;;;;5022019;28;20500;-43
2022/08/14 07:57:42;;;;;;;7.65;6.38;;;26.00;46.10;;;;;;5021152;28;20065;-45
2022/08/14 08:00:12;;;;;;;10.30;6.63;;;26.00;46.10;;;;;;5018171;28;20497;-44
2022/08/14 08:02:42;;;;;;;6.20;5.60;;;26.10;46.10;;;;;;5018960;28;20060;-46
2022/08/14 08:05:11;;;;;;;6.50;5.50;;;26.10;46.00;;;;;;5021357;28;20508;-48
2022/08/14 08:07:40;;;;;;;7.53;6.75;;;26.20;46.00;;;;;;5019235;28;20061;-46
2022/08/14 08:12:57;;;;;;;7.97;6.82;;;26.30;46.00;;;;;;5027156;28;20069;-42
2022/08/14 08:15:25;;;;;;;6.07;5.47;;;26.40;45.80;;;;;;5020692;28;20065;-43
2022/08/14 08:17:54;;;;;;;6.35;5.75;;;26.50;45.80;;;;;;5019918;28;20057;-44
2022/08/14 08:20:24;;;;;;;8.68;6.13;;;26.50;45.80;;;;;;5021542;28;21011;-46
2022/08/14 08:22:53;;;;;;;7.18;5.50;;;26.60;45.50;;;;;;5021524;28;20049;-42
2022/08/14 08:25:21;;;;;;;7.05;6.13;;;26.70;45.30;;;;;;5025866;28;20064;-43
2022/08/14 08:28:00;;;;;;;7.40;6.50;;;26.70;44.90;;;;;;5024257;28;20050;-42
2022/08/14 08:30:28;;;;;;;6.38;5.57;;;26.80;44.70;;;;;;5025458;28;20061;-43
2022/08/14 08:32:58;;;;;;;6.85;6.15;;;26.80;44.60;;;;;;5026155;28;20412;-42
2022/08/14 08:35:26;;;;;;;6.55;5.80;;;26.90;44.60;;;;;;5025857;28;20072;-42
2022/08/14 08:38:00;;;;;;;7.93;6.18;;;27.00;44.70;;;;;;5025237;28;20076;-45
2022/08/14 08:40:34;;;;;;;7.53;6.18;;;27.00;44.40;;;;;;5023827;28;20064;-43
2022/08/14 08:43:01;;;;;;;6.78;5.57;;;27.10;44.30;;;;;;5024245;28;20053;-44
2022/08/14 08:45:30;;;;;;;6.32;5.72;;;27.10;44.20;;;;;;5023211;28;20064;-45
2022/08/14 08:47:57;;;;;;;6.60;5.90;;;27.20;44.10;;;;;;5022063;28;20052;-46
2022/08/14 08:50:29;;;;;;;8.48;5.65;;;27.30;43.80;;;;;;5023421;28;20053;-42
2022/08/14 08:52:59;;;;;;;6.22;5.45;;;27.30;43.70;;;;;;5025145;28;20523;-43
2022/08/14 08:55:32;;;;;;;6.45;5.13;;;27.40;43.60;;;;;;5024524;28;20064;-46
2022/08/14 08:58:00;;;;;;;;;;;27.40;43.50;;;;;;5025246;28;20054;-47
2022/08/14 09:00:32;;;;;;;6.10;5.50;;;27.50;43.40;;;;;;5023150;28;19929;-44
2022/08/14 09:03:03;;;;;;;6.50;5.28;;;27.60;43.20;;;;;;5023281;28;20057;-45
2022/08/14 09:05:32;;;;;;;7.05;5.03;;;27.60;42.90;;;;;;5024598;28;20061;-44
2022/08/14 09:08:14;;;;;;;7.30;5.43;;;27.70;42.80;;;;;;5019768;28;20049;-46
2022/08/14 09:10:43;;;;;;;6.90;4.88;;;27.80;43.10;;;;;;5011845;28;20405;-47
2022/08/14 09:13:11;;;;;;;6.60;5.15;;;27.80;42.50;;;;;;5011218;28;20064;-44
2022/08/14 09:15:40;;;;;;;6.18;4.85;;;27.90;42.50;;;;;;5011763;28;20049;-47
2022/08/14 09:18:09;;;;;;;5.25;4.75;;;27.90;42.30;;;;;;5010146;28;20053;-47
2022/08/14 09:20:38;;;;;;;7.78;5.82;;;27.90;42.20;;;;;;5009712;28;20045;-46
2022/08/14 09:23:06;;;;;;;5.78;5.00;;;28.00;42.20;;;;;;5014137;28;20057;-45
2022/08/14 09:25:35;;;;;;;6.05;5.45;;;28.10;42.00;;;;;;5008711;28;20053;-43
2022/08/14 09:28:04;;;;;;;6.43;4.97;;;28.10;41.90;;;;;;5011179;28;20060;-46
2022/08/14 09:30:33;;;;;;;5.80;5.05;;;28.20;41.70;;;;;;5010434;28;20049;-43
2022/08/14 09:33:40;;;;;;;6.85;5.18;;;28.30;41.80;;;;;;5010460;28;20408;-44
2022/08/14 09:36:27;;;;;;;6.13;5.03;;;28.40;41.40;;;;;;4967058;28;20065;-52
2022/08/14 09:39:04;;;;;;;5.68;4.18;;;28.50;40.90;;;;;;5008119;28;20064;-49
2022/08/14 09:41:44;;;;;;;5.75;4.38;;;28.50;40.70;;;;;;5009162;28;20050;-47
2022/08/14 09:44:28;;;;;;;5.22;4.60;;;28.60;40.50;;;;;;5011859;28;20057;-44
2022/08/14 09:46:56;;;;;;;5.35;3.70;;;28.70;40.40;;;;;;5014249;28;20049;-46
2022/08/14 09:49:31;;;;;;;5.97;4.10;;;28.70;39.70;;;;;;5008255;28;20061;-49
2022/08/14 09:52:04;;;;;;;3.97;3.67;;;28.80;39.40;;;;;;5011951;28;20060;-47
2022/08/14 09:54:38;;;;;;;3.90;3.50;;;28.80;39.50;;;;;;5012440;28;20409;-47
2022/08/14 09:57:09;;;;;;;4.20;3.58;;;28.90;39.40;;;;;;5009738;28;20053;-45
2022/08/14 09:59:48;;;;;;;4.35;3.35;;;29.00;39.40;;;;;;5009382;28;20069;-49
2022/08/14 10:02:23;;;;;;;4.85;4.20;;;29.00;39.20;;;;;;5008910;28;20058;-45
2022/08/14 10:05:00;;;;;;;7.53;3.80;;;29.10;38.60;;;;;;5015555;28;20049;-49
2022/08/14 10:07:32;;;;;;;8.10;4.20;;;29.10;38.20;;;;;;5008296;28;20065;-44
2022/08/14 10:10:00;;;;;;;4.40;3.60;;;29.20;38.20;;;;;;5009583;28;20081;-46
2022/08/14 10:12:42;;;;;;;5.38;3.90;;;29.30;38.00;;;;;;5007804;28;20053;-44
2022/08/14 10:15:21;;;;;;;4.85;3.92;;;29.30;37.80;;;;;;5012523;28;20493;-43
2022/08/14 10:17:50;;;;;;;3.78;3.40;;;29.40;37.80;;;;;;5012314;28;20053;-45
2022/08/14 10:20:21;;;;;;;4.65;3.60;;;29.40;37.70;;;;;;5005943;28;20060;-49
2022/08/14 10:22:49;;;;;;;4.35;3.47;;;29.40;37.50;;;;;;5016131;28;20051;-45
2022/08/14 10:25:18;;;;;;;4.30;3.38;;;29.50;37.40;;;;;;5014086;28;20064;-43
2022/08/14 10:27:56;;;;;;;4.10;3.33;;;29.50;37.30;;;;;;5011445;28;20053;-47
2022/08/14 10:30:36;;;;;;;3.30;3.00;;;29.60;37.20;;;;;;5012795;28;20049;-43
2022/08/14 10:33:03;;;;;;;3.70;3.30;;;29.60;36.90;;;;;;5013587;28;20409;-44
2022/08/14 10:35:40;;;;;;;4.30;3.90;;;29.70;37.00;;;;;;5014717;28;21674;-47
2022/08/14 10:38:07;;;;;;;5.45;3.55;;;29.70;36.80;;;;;;5012916;28;20053;-45
2022/08/14 10:40:35;;;;;;;4.93;3.40;;;29.80;36.70;;;;;;5012521;28;20056;-46
2022/08/14 10:43:02;;;;;;;5.20;3.13;;;29.90;36.80;;;;;;5010964;28;20088;-46
2022/08/14 10:45:33;;;;;;;3.55;3.20;;;29.90;36.40;;;;;;5011234;28;20057;-43
2022/08/14 10:48:01;;;;;;;4.72;3.90;;;29.90;36.10;;;;;;5010527;28;20053;-45
2022/08/14 10:50:30;;;;;;;3.53;3.22;;;29.90;36.10;;;;;;5009744;28;20048;-44
2022/08/14 10:52:58;;;;;;;3.65;3.08;;;30.00;36.30;;;;;;5012912;28;20497;-42
2022/08/14 10:55:38;;;;;;;3.75;3.25;;;30.00;36.10;;;;;;5008708;28;20050;-45
2022/08/14 10:58:10;;;;;;;7.10;3.50;;;30.00;36.00;;;;;;5012956;28;20054;-42
2022/08/14 11:00:40;;;;;;;4.25;3.40;;;30.10;36.50;;;;;;5010143;28;21705;-43
2022/08/14 11:03:12;;;;;;;4.93;3.60;;;30.10;36.40;;;;;;5011906;28;20053;-43
2022/08/14 11:05:42;;;;;;;12.40;3.80;;;30.20;36.10;;;;;;5011120;28;20056;-45
2022/08/14 11:08:10;;;;;;;3.92;3.63;;;30.20;36.10;;;;;;5008675;28;20060;-45
2022/08/14 11:10:43;;;;;;;4.03;3.40;;;30.30;36.00;;;;;;5012042;28;20053;-47
2022/08/14 11:13:16;;;;;;;3.90;3.53;;;30.30;35.70;;;;;;5015464;28;20064;-43
2022/08/14 11:15:47;;;;;;;3.40;3.10;;;30.30;35.70;;;;;;5010522;28;20413;-47
2022/08/14 11:18:14;;;;;;;3.78;3.00;;;30.40;35.70;;;;;;5011766;28;20115;-46
2022/08/14 11:20:48;;;;;;;4.55;3.53;;;30.30;35.70;;;;;;5009765;28;20476;-49
2022/08/14 11:23:17;;;;;;;3.67;3.30;;;30.40;35.50;;;;;;5008198;28;20046;-45
2022/08/14 11:25:45;;;;;;;4.40;3.50;;;30.40;35.40;;;;;;5011981;28;20052;-44
2022/08/14 11:28:13;;;;;;;3.72;3.40;;;30.40;35.10;;;;;;5011258;28;20065;-46
2022/08/14 11:30:43;;;;;;;5.32;3.00;;;30.50;35.00;;;;;;5013226;28;20332;-46
2022/08/14 11:33:12;;;;;;;3.67;3.20;;;30.50;35.00;;;;;;5010168;28;20049;-44
2022/08/14 11:35:41;;;;;;;5.13;3.00;;;30.50;35.30;;;;;;5012232;28;20076;-47
2022/08/14 11:38:09;;;;;;;3.28;2.97;;;30.50;35.20;;;;;;5012839;28;20054;-43
2022/08/14 11:40:38;;;;;;;3.17;2.88;;;30.50;34.90;;;;;;5014544;28;20060;-45
2022/08/14 11:43:07;;;;;;;4.35;2.90;;;30.60;35.00;;;;;;5012508;28;20064;-42
2022/08/14 11:45:37;;;;;;;2.72;2.50;;;30.60;34.70;;;;;;5011032;28;20057;-45
2022/08/14 11:48:16;;;;;;;3.47;3.17;;;30.70;34.30;;;;;;5011918;28;20064;-45
2022/08/14 11:50:45;;;;;;;3.50;3.20;;;30.80;34.00;;;;;;5013037;28;20060;-48
2022/08/14 11:53:21;;;;;;;3.58;3.20;;;30.80;34.00;;;;;;5011461;28;20523;-46
2022/08/14 11:55:55;;;;;;;3.85;2.90;;;30.80;33.90;;;;;;5010707;28;20061;-48
2022/08/14 11:58:27;;;;;;;4.07;2.90;;;30.90;33.70;;;;;;5011623;28;20057;-47
2022/08/14 12:01:00;;;;;;;3.67;2.90;;;30.90;33.50;;;;;;5012327;28;20138;-44
2022/08/14 12:03:40;;;;;;;3.90;3.10;;;30.90;33.90;;;;;;5017051;28;20045;-45
2022/08/14 12:06:09;;;;;;;5.55;2.95;;;31.00;34.20;;;;;;5014429;28;20049;-43
2022/08/14 12:08:37;;;;;;;3.42;2.83;;;31.00;33.80;;;;;;5015728;28;20398;-46
2022/08/14 12:11:05;;;;;;;3.50;3.20;;;31.10;33.40;;;;;;5011418;28;20056;-48
2022/08/14 12:13:34;;;;;;;3.70;2.90;;;31.10;33.40;;;;;;5012198;28;20057;-49
2022/08/14 12:16:04;;;;;;;3.22;2.90;;;31.20;33.50;;;;;;5015267;28;20054;-46
2022/08/14 12:18:33;;;;;;;4.32;2.70;;;31.20;33.30;;;;;;4998630;28;20060;-44
2022/08/14 12:21:13;;;;;;;2.65;2.45;;;31.20;32.80;;;;;;5014017;28;20054;-46
2022/08/14 12:23:41;;;;;;;3.05;2.78;;;31.20;32.70;;;;;;5019172;28;20053;-43
2022/08/14 12:26:10;;;;;;;3.30;3.00;;;31.30;33.00;;;;;;5015288;28;20057;-45
2022/08/14 12:28:38;;;;;;;3.70;2.95;;;31.30;32.80;;;;;;5012563;28;20413;-46
2022/08/14 12:31:18;;;;;;;3.15;2.85;;;31.30;32.60;;;;;;5014073;28;20046;-47
2022/08/14 12:33:56;;;;;;;3.22;2.75;;;31.30;32.40;;;;;;5014564;28;20060;-46
2022/08/14 12:36:29;;;;;;;2.90;2.55;;;31.40;32.30;;;;;;5017134;28;20769;-45
2022/08/14 12:38:57;;;;;;;2.60;2.38;;;31.40;32.10;;;;;;5016102;28;20060;-46
2022/08/14 12:41:25;;;;;;;3.00;2.70;;;31.40;32.00;;;;;;5014567;28;20057;-46
2022/08/14 12:43:56;;;;;;;2.70;2.50;;;31.40;31.90;;;;;;5014203;28;20057;-46
2022/08/14 12:46:26;;;;;;;3.13;2.72;;;31.50;31.90;;;;;;5018506;28;20440;-45
2022/08/14 12:48:54;;;;;;;7.65;2.90;;;31.50;32.10;;;;;;5020182;28;20053;-48
2022/08/14 12:51:25;;;;;;;18.73;3.35;;;31.50;32.00;;;;;;5018597;28;20049;-48
2022/08/14 12:53:55;;;;;;;4.78;3.22;;;31.50;32.30;;;;;;5015114;28;20053;-48
2022/08/14 12:56:24;;;;;;;5.78;2.55;;;31.50;32.20;;;;;;5014891;28;20049;-46
2022/08/14 12:58:53;;;;;;;3.20;2.80;;;31.50;32.40;;;;;;5013684;28;20053;-47
2022/08/14 13:01:22;;;;;;;3.50;2.42;;;31.60;32.30;;;;;;5015406;28;20417;-42
2022/08/14 13:03:51;;;;;;;3.05;2.75;;;31.60;32.10;;;;;;5017622;28;20053;-47
2022/08/14 13:06:19;;;;;;;2.80;2.60;;;31.60;31.90;;;;;;5019340;28;20049;-46
2022/08/14 13:08:47;;;;;;;2.67;2.40;;;31.60;31.70;;;;;;5013881;28;20049;-45
2022/08/14 13:11:17;;;;;;;3.17;2.25;;;31.60;31.50;;;;;;5015234;28;20441;-43
2022/08/14 13:13:44;;;;;;;2.65;2.45;;;31.60;31.50;;;;;;5014246;28;20394;-47
2022/08/14 13:16:15;;;;;;;2.00;1.90;;;31.50;31.40;;;;;;5017351;28;20568;-47
2022/08/14 13:18:45;;;;;;;2.53;2.33;;;31.50;31.50;;;;;;5024737;28;20523;-45